createdAt,value
2022-11-06T00:02:20.791Z,100846.72
2022-11-06T00:04:47.574Z,100844.03
2022-11-06T00:07:14.034Z,100844.03
2022-11-06T00:09:40.492Z,100841.34
2022-11-06T00:12:07.109Z,100837.00
2022-11-06T00:14:33.480Z,100832.59
2022-11-06T00:16:59.892Z,100827.22
2022-11-06T00:19:26.402Z,100828.25
2022-11-06T00:21:52.742Z,100817.63
2022-11-06T00:24:19.280Z,100822.19
2022-11-06T00:26:49.843Z,100828.56
2022-11-06T00:29:19.497Z,100818.81
2022-11-06T00:31:45.828Z,100832.25
2022-11-06T00:34:12.210Z,100820.66
2022-11-06T00:36:38.758Z,100819.81
2022-11-06T00:39:05.140Z,100822.50
2022-11-06T00:41:31.515Z,100819.81
2022-11-06T00:44:02.288Z,100831.25
2022-11-06T00:46:28.968Z,100828.72
2022-11-06T00:48:56.230Z,100831.56
2022-11-06T00:51:27.113Z,100832.59
2022-11-06T00:53:55.728Z,100832.59
2022-11-06T00:56:22.095Z,100830.91
2022-11-06T00:58:48.631Z,100837.13
2022-11-06T01:01:26.676Z,100841.66
2022-11-06T01:04:08.318Z,100837.13
2022-11-06T01:06:37.455Z,100844.34
2022-11-06T01:09:05.308Z,100831.75
2022-11-06T01:12:06.970Z,100827.19
2022-11-06T01:14:26.957Z,100818.31
2022-11-06T01:16:53.761Z,100821.81
2022-11-06T01:19:22.224Z,100816.44
2022-11-06T01:21:52.629Z,100821.00
2022-11-06T01:24:27.462Z,100818.13
2022-11-06T01:29:41.581Z,100816.44
2022-11-06T01:32:07.936Z,100809.41
2022-11-06T01:34:34.335Z,100805.88
2022-11-06T01:37:00.752Z,100804.03
2022-11-06T01:39:27.119Z,100797.81
2022-11-06T01:41:54.298Z,100813.06
2022-11-06T01:44:35.546Z,100802.31
2022-11-06T01:47:05.513Z,100807.88
2022-11-06T01:49:36.368Z,100806.19
2022-11-06T01:52:07.672Z,100789.38
2022-11-06T01:54:36.391Z,100786.16
2022-11-06T01:57:04.527Z,100783.81
2022-11-06T01:59:34.373Z,100785.13
2022-11-06T02:02:00.915Z,100782.13
2022-11-06T02:04:35.976Z,100772.66
2022-11-06T02:07:02.649Z,100782.38
2022-11-06T02:09:31.837Z,100764.06
2022-11-06T02:12:20.921Z,100758.50
2022-11-06T02:15:03.692Z,100755.44
2022-11-06T02:18:05.799Z,100748.22
2022-11-06T02:20:39.684Z,100741.78
2022-11-06T02:23:37.635Z,100755.72
2022-11-06T02:26:25.896Z,100757.38
2022-11-06T02:29:07.913Z,100759.69
2022-11-06T02:31:37.799Z,100752.09
2022-11-06T02:34:10.520Z,100756.13
2022-11-06T02:36:42.967Z,100751.94
2022-11-06T02:39:15.057Z,100757.63
2022-11-06T02:41:45.514Z,100761.28
2022-11-06T02:44:17.331Z,100749.84
2022-11-06T02:46:49.652Z,100742.81
2022-11-06T02:49:32.976Z,100743.84
2022-11-06T02:52:06.414Z,100742.97
2022-11-06T02:54:37.456Z,100749.50
2022-11-06T02:57:06.993Z,100755.03
2022-11-06T02:59:52.250Z,100747.47
2022-11-06T03:02:24.980Z,100740.56
2022-11-06T03:04:54.170Z,100740.06
2022-11-06T03:07:55.985Z,100741.22
2022-11-06T03:10:28.180Z,100731.63
2022-11-06T03:13:21.366Z,100742.50
2022-11-06T03:16:07.257Z,100735.63
2022-11-06T03:18:54.472Z,100731.25
2022-11-06T03:21:46.572Z,100735.63
2022-11-06T03:24:19.184Z,100737.97
2022-11-06T03:26:48.503Z,100737.84
2022-11-06T03:29:22.245Z,100732.00
2022-11-06T03:32:05.591Z,100728.84
2022-11-06T03:34:39.933Z,100730.88
2022-11-06T03:37:14.621Z,100732.06
2022-11-06T03:39:48.494Z,100733.44
2022-11-06T03:42:20.963Z,100730.25
2022-11-06T03:44:52.623Z,100730.81
2022-11-06T03:47:28.241Z,100735.66
2022-11-06T03:50:01.043Z,100736.22
2022-11-06T03:52:35.943Z,100734.22
2022-11-06T03:55:12.092Z,100734.03
2022-11-06T03:57:52.548Z,100740.25
2022-11-06T04:00:20.460Z,100729.69
2022-11-06T04:02:53.278Z,100734.88
2022-11-06T04:05:23.901Z,100727.97
2022-11-06T04:08:14.275Z,100718.38
2022-11-06T04:11:04.465Z,100720.44
2022-11-06T04:13:52.693Z,100720.91
2022-11-06T04:16:19.213Z,100718.69
2022-11-06T04:18:45.541Z,100730.09
2022-11-06T04:21:32.960Z,100732.41
2022-11-06T04:24:27.251Z,100723.97
2022-11-06T04:27:13.520Z,100720.25
2022-11-06T04:30:20.341Z,100725.25
2022-11-06T04:33:22.726Z,100725.91
2022-11-06T04:35:58.117Z,100725.66
2022-11-06T04:38:33.538Z,100736.56
2022-11-06T04:41:25.837Z,100734.22
2022-11-06T04:43:58.795Z,100732.50
2022-11-06T04:46:36.530Z,100740.41
2022-11-06T04:49:06.012Z,100732.19
2022-11-06T04:51:36.060Z,100727.50
2022-11-06T04:54:02.816Z,100729.03
2022-11-06T04:56:35.029Z,100714.31
2022-11-06T04:59:03.561Z,100712.28
2022-11-06T05:01:30.099Z,100712.84
2022-11-06T05:03:56.632Z,100712.53
2022-11-06T05:06:28.692Z,100705.84
2022-11-06T05:08:58.304Z,100709.88
2022-11-06T05:11:24.796Z,100706.88
2022-11-06T05:13:51.133Z,100698.34
2022-11-06T05:16:17.551Z,100697.03
2022-11-06T05:18:43.893Z,100704.91
2022-11-06T05:21:29.428Z,100698.22
2022-11-06T05:23:55.786Z,100693.53
2022-11-06T05:26:22.155Z,100686.13
2022-11-06T05:28:48.490Z,100688.50
2022-11-06T05:31:14.810Z,100686.50
2022-11-06T05:33:41.139Z,100680.13
2022-11-06T05:36:07.846Z,100668.22
2022-11-06T05:38:34.445Z,100677.81
2022-11-06T05:41:01.153Z,100666.06
2022-11-06T05:43:27.503Z,100678.31
2022-11-06T05:45:53.865Z,100671.09
2022-11-06T05:48:20.238Z,100674.47
2022-11-06T05:50:47.143Z,100670.75
2022-11-06T05:53:13.864Z,100666.06
2022-11-06T05:55:40.210Z,100668.59
2022-11-06T05:58:06.562Z,100660.38
2022-11-06T06:00:32.967Z,100661.06
2022-11-06T06:02:59.407Z,100660.03
2022-11-06T06:05:25.806Z,100668.09
2022-11-06T06:07:52.137Z,100658.22
2022-11-06T06:10:18.668Z,100652.66
2022-11-06T06:12:45.001Z,100652.66
2022-11-06T06:15:11.753Z,100653.66
2022-11-06T06:17:38.222Z,100651.97
2022-11-06T06:20:05.769Z,100653.00
2022-11-06T06:22:32.142Z,100646.78
2022-11-06T06:24:58.724Z,100648.94
2022-11-06T06:27:27.479Z,100647.13
2022-11-06T06:29:54.406Z,100645.41
2022-11-06T06:32:20.762Z,100647.41
2022-11-06T06:34:47.127Z,100646.78
2022-11-06T06:37:17.668Z,100652.28
2022-11-06T06:39:46.529Z,100652.63
2022-11-06T06:42:12.878Z,100641.38
2022-11-06T06:44:39.229Z,100650.75
2022-11-06T06:47:05.554Z,100642.34
2022-11-06T06:49:31.904Z,100650.88
2022-11-06T06:51:58.261Z,100647.19
2022-11-06T06:54:24.595Z,100653.88
2022-11-06T06:56:50.974Z,100647.31
2022-11-06T06:59:17.337Z,100658.50
2022-11-06T07:01:43.825Z,100642.88
2022-11-06T07:04:10.784Z,100646.06
2022-11-06T07:06:37.131Z,100642.69
2022-11-06T07:09:03.545Z,100656.44
2022-11-06T07:11:29.901Z,100663.94
2022-11-06T07:13:56.266Z,100664.13
2022-11-06T07:16:22.633Z,100660.75
2022-11-06T07:18:48.975Z,100656.56
2022-11-06T07:21:15.321Z,100661.09
2022-11-06T07:23:41.894Z,100664.75
2022-11-06T07:26:08.685Z,100663.06
2022-11-06T07:28:35.539Z,100661.91
2022-11-06T07:31:05.254Z,100663.59
2022-11-06T07:33:31.689Z,100661.59
2022-11-06T07:36:09.882Z,100667.50
2022-11-06T07:38:37.698Z,100666.50
2022-11-06T07:41:05.543Z,100665.47
2022-11-06T07:43:32.304Z,100666.84
2022-11-06T07:46:01.369Z,100671.06
2022-11-06T07:48:28.922Z,100658.34
2022-11-06T07:50:55.690Z,100657.16
2022-11-06T07:53:22.426Z,100667.56
2022-11-06T07:55:53.864Z,100662.72
2022-11-06T07:58:20.730Z,100658.72
2022-11-06T08:00:48.254Z,100660.91
2022-11-06T08:03:15.473Z,100664.97
2022-11-06T08:05:42.259Z,100669.16
2022-11-06T08:08:08.684Z,100670.34
2022-11-06T08:10:37.833Z,100653.09
2022-11-06T08:13:04.183Z,100659.81
2022-11-06T08:15:30.531Z,100645.88
2022-11-06T08:17:59.297Z,100643.53
2022-11-06T08:20:26.025Z,100642.38
2022-11-06T08:22:52.412Z,100644.59
2022-11-06T08:25:18.749Z,100639.72
2022-11-06T08:27:45.081Z,100640.94
2022-11-06T08:30:12.230Z,100627.84
2022-11-06T08:32:38.581Z,100624.81
2022-11-06T08:35:05.568Z,100626.16
2022-11-06T08:37:31.923Z,100616.75
2022-11-06T08:39:58.267Z,100616.28
2022-11-06T08:42:24.599Z,100609.53
2022-11-06T08:44:50.978Z,100605.34
2022-11-06T08:47:17.325Z,100594.13
2022-11-06T08:49:43.642Z,100590.94
2022-11-06T08:52:10.737Z,100589.41
2022-11-06T08:54:37.080Z,100591.41
2022-11-06T08:57:03.945Z,100594.28
2022-11-06T08:59:30.645Z,100609.72
2022-11-06T09:01:57.642Z,100599.97
2022-11-06T09:04:24.134Z,100593.06
2022-11-06T09:06:50.526Z,100590.34
2022-11-06T09:09:16.932Z,100586.81
2022-11-06T09:11:43.405Z,100581.56
2022-11-06T09:14:09.724Z,100586.06
2022-11-06T09:16:36.089Z,100590.78
2022-11-06T09:19:02.492Z,100580.97
2022-11-06T09:21:28.822Z,100580.97
2022-11-06T09:23:55.207Z,100579.22
2022-11-06T09:26:21.541Z,100572.16
2022-11-06T09:28:47.874Z,100577.47
2022-11-06T09:31:14.225Z,100565.00
2022-11-06T09:33:40.565Z,100572.19
2022-11-06T09:36:07.379Z,100567.75
2022-11-06T09:38:33.938Z,100566.88
2022-11-06T09:41:02.279Z,100560.44
2022-11-06T09:44:05.821Z,100548.41
2022-11-06T09:46:38.307Z,100548.16
2022-11-06T09:49:32.008Z,100543.38
2022-11-06T09:52:03.354Z,100536.88
2022-11-06T09:54:40.346Z,100539.47
2022-11-06T09:57:15.981Z,100535.03
2022-11-06T09:59:43.288Z,100534.97
2022-11-06T10:02:23.812Z,100525.75
2022-11-06T10:05:07.960Z,100520.09
2022-11-06T10:07:37.889Z,100518.13
2022-11-06T10:10:08.186Z,100522.41
2022-11-06T10:12:49.323Z,100524.84
2022-11-06T10:15:33.689Z,100520.19
2022-11-06T10:18:05.961Z,100500.34
2022-11-06T10:20:48.758Z,100501.91
2022-11-06T10:23:20.502Z,100500.97
2022-11-06T10:26:11.070Z,100502.06
2022-11-06T10:28:51.867Z,100501.09
2022-11-06T10:31:34.150Z,100497.00
2022-11-06T10:34:03.569Z,100498.28
2022-11-06T10:36:36.618Z,100496.06
2022-11-06T10:39:11.088Z,100492.13
2022-11-06T10:41:39.037Z,100497.31
2022-11-06T10:44:13.540Z,100489.88
2022-11-06T10:46:46.416Z,100489.69
2022-11-06T10:49:28.264Z,100495.09
2022-11-06T10:52:21.791Z,100490.69
2022-11-06T10:55:18.600Z,100478.03
2022-11-06T10:57:49.705Z,100483.63
2022-11-06T11:00:16.443Z,100480.09
2022-11-06T11:02:51.485Z,100473.88
2022-11-06T11:05:20.463Z,100467.41
2022-11-06T11:07:48.960Z,100469.94
2022-11-06T11:10:24.299Z,100460.41
2022-11-06T11:12:56.691Z,100463.53
2022-11-06T11:15:25.698Z,100450.28
2022-11-06T11:18:17.486Z,100451.00
2022-11-06T11:20:46.648Z,100442.09
2022-11-06T11:23:22.523Z,100431.13
2022-11-06T11:25:52.957Z,100423.53
2022-11-06T11:28:34.284Z,100406.34
2022-11-06T11:31:14.560Z,100399.13
2022-11-06T11:33:49.589Z,100399.13
2022-11-06T11:36:16.045Z,100397.72
2022-11-06T11:38:42.952Z,100397.31
2022-11-06T11:41:14.183Z,100390.44
2022-11-06T11:43:42.432Z,100371.31
2022-11-06T11:46:08.718Z,100379.03
2022-11-06T11:48:58.327Z,100375.53
2022-11-06T11:51:29.803Z,100380.13
2022-11-06T11:54:03.271Z,100368.50
2022-11-06T11:57:02.324Z,100370.59
2022-11-06T11:59:21.676Z,100370.00
2022-11-06T12:01:49.105Z,100367.06
2022-11-06T12:04:17.985Z,100363.97
2022-11-06T12:06:53.574Z,100356.47
2022-11-06T12:09:20.757Z,100337.34
2022-11-06T12:11:47.964Z,100325.44
2022-11-06T12:14:28.144Z,100324.03
2022-11-06T12:17:00.793Z,100315.66
2022-11-06T12:19:32.297Z,100305.28
2022-11-06T12:22:05.485Z,100304.44
2022-11-06T12:24:49.593Z,100306.97
2022-11-06T12:27:25.132Z,100299.69
2022-11-06T12:30:06.464Z,100289.69
2022-11-06T12:32:51.679Z,100285.13
2022-11-06T12:35:39.365Z,100272.84
2022-11-06T12:38:33.309Z,100278.03
2022-11-06T12:41:15.340Z,100267.81
2022-11-06T12:43:51.637Z,100261.38
2022-11-06T12:46:55.840Z,100256.97
2022-11-06T12:49:25.157Z,100255.09
2022-11-06T12:51:54.428Z,100262.81
2022-11-06T12:55:05.255Z,100255.75
2022-11-06T12:57:41.622Z,100249.91
2022-11-06T13:00:13.638Z,100252.00
2022-11-06T13:03:05.082Z,100248.66
2022-11-06T13:05:53.178Z,100233.25
2022-11-06T13:08:40.395Z,100225.28
2022-11-06T13:11:13.899Z,100224.44
2022-11-06T13:13:52.754Z,100220.91
2022-11-06T13:16:52.472Z,100220.28
2022-11-06T13:19:37.743Z,100206.34
2022-11-06T13:22:27.412Z,100206.13
2022-11-06T13:25:03.124Z,100200.31
2022-11-06T13:27:42.388Z,100195.28
2022-11-06T13:30:18.958Z,100171.56
2022-11-06T13:32:53.999Z,100173.84
2022-11-06T13:35:22.466Z,100180.50
2022-11-06T13:37:51.050Z,100179.06
2022-11-06T13:40:27.452Z,100177.59
2022-11-06T13:43:07.776Z,100183.22
2022-11-06T13:45:46.084Z,100175.13
2022-11-06T13:48:37.313Z,100170.53
2022-11-06T13:51:42.007Z,100172.41
2022-11-06T13:54:37.614Z,100175.13
2022-11-06T13:57:23.246Z,100187.59
2022-11-06T14:00:08.045Z,100176.13
2022-11-06T14:02:53.240Z,100179.06
2022-11-06T14:05:42.711Z,100188.03
2022-11-06T14:08:16.620Z,100186.38
2022-11-06T14:10:59.725Z,100193.44
2022-11-06T14:13:30.560Z,100194.47
2022-11-06T14:16:04.204Z,100193.63
2022-11-06T14:18:31.434Z,100190.50
2022-11-06T14:21:25.767Z,100183.22
2022-11-06T14:24:13.606Z,100186.34
2022-11-06T14:26:45.562Z,100185.72
2022-11-06T14:29:29.816Z,100189.66
2022-11-06T14:32:00.519Z,100184.66
2022-11-06T14:34:30.181Z,100177.81
2022-11-06T14:36:56.724Z,100173.63
2022-11-06T14:39:58.033Z,100172.81
2022-11-06T14:42:26.916Z,100181.13
2022-11-06T14:44:56.151Z,100170.53
2022-11-06T14:47:31.329Z,100175.31
2022-11-06T14:50:02.119Z,100174.88
2022-11-06T14:52:38.110Z,100181.09
2022-11-06T14:55:06.231Z,100173.84
2022-11-06T14:57:43.604Z,100173.81
2022-11-06T15:00:58.211Z,100166.09
2022-11-06T15:03:35.677Z,100160.25
2022-11-06T15:06:05.975Z,100167.69
2022-11-06T15:08:48.185Z,100165.19
2022-11-06T15:11:29.610Z,100173.47
2022-11-06T15:13:56.349Z,100166.56
2022-11-06T15:16:25.340Z,100158.44
2022-11-06T15:18:51.986Z,100147.59
2022-11-06T15:21:24.270Z,100143.66
2022-11-06T15:23:56.725Z,100131.56
2022-11-06T15:26:27.138Z,100132.19
2022-11-06T15:29:13.436Z,100131.72
2022-11-06T15:31:41.835Z,100123.00
2022-11-06T15:34:17.016Z,100134.19
2022-11-06T15:36:50.793Z,100121.09
2022-11-06T15:39:32.059Z,100123.16
2022-11-06T15:41:59.259Z,100120.03
2022-11-06T15:44:26.039Z,100108.81
2022-11-06T15:46:57.978Z,100109.84
2022-11-06T15:49:25.541Z,100098.59
2022-11-06T15:52:01.270Z,100094.44
2022-11-06T15:54:35.942Z,100084.66
2022-11-06T15:57:13.489Z,100094.84
2022-11-06T15:59:39.825Z,100085.47
2022-11-06T16:02:25.327Z,100083.81
2022-11-06T16:04:52.257Z,100082.53
2022-11-06T16:07:19.619Z,100094.38
2022-11-06T16:09:46.948Z,100102.88
2022-11-06T16:12:16.883Z,100092.25
2022-11-06T16:14:45.005Z,100094.31
2022-11-06T16:17:38.748Z,100092.44
2022-11-06T16:20:13.207Z,100090.78
2022-11-06T16:22:39.612Z,100099.94
2022-11-06T16:25:07.303Z,100094.53
2022-11-06T16:27:36.854Z,100091.19
2022-11-06T16:30:06.264Z,100078.72
2022-11-06T16:32:39.736Z,100074.16
2022-11-06T16:35:33.378Z,100078.72
2022-11-06T16:38:45.295Z,100072.69
2022-11-06T16:41:33.991Z,100068.31
2022-11-06T16:44:24.902Z,100076.41
2022-11-06T16:47:05.122Z,100080.16
2022-11-06T16:49:34.069Z,100079.53
2022-11-06T16:52:00.821Z,100083.25
2022-11-06T16:54:28.843Z,100086.16
2022-11-06T16:56:55.858Z,100083.66
2022-11-06T16:59:26.156Z,100100.69
2022-11-06T17:01:52.940Z,100093.59
2022-11-06T17:04:26.198Z,100097.50
2022-11-06T17:06:53.831Z,100111.00
2022-11-06T17:09:23.029Z,100104.97
2022-11-06T17:11:57.726Z,100099.34
2022-11-06T17:14:25.177Z,100110.91
2022-11-06T17:16:54.768Z,100094.47
2022-11-06T17:19:21.697Z,100097.97
2022-11-06T17:21:49.380Z,100092.53
2022-11-06T17:24:35.889Z,100092.47
2022-11-06T17:27:01.984Z,100085.41
2022-11-06T17:29:28.344Z,100072.91
2022-11-06T17:31:55.744Z,100076.56
2022-11-06T17:34:22.058Z,100072.97
2022-11-06T17:36:48.397Z,100054.91
2022-11-06T17:39:14.914Z,100047.38
2022-11-06T17:41:41.446Z,100031.16
2022-11-06T17:44:09.831Z,100022.63
2022-11-06T17:46:40.238Z,100014.94
2022-11-06T17:49:08.337Z,100011.97
2022-11-06T17:51:55.330Z,100006.78
2022-11-06T17:54:30.279Z,99996.19
2022-11-06T17:56:57.772Z,99982.28
2022-11-06T17:59:24.116Z,99973.75
2022-11-06T18:01:51.553Z,99976.66
2022-11-06T18:04:19.530Z,99970.63
2022-11-06T18:06:50.846Z,99964.59
2022-11-06T18:09:18.625Z,99973.72
2022-11-06T18:11:45.396Z,99965.97
2022-11-06T18:14:12.221Z,99976.97
2022-11-06T18:16:43.684Z,99977.16
2022-11-06T18:19:11.998Z,99979.22
2022-11-06T18:21:38.350Z,99965.28
2022-11-06T18:24:05.095Z,99967.34
2022-11-06T18:26:31.788Z,99971.25
2022-11-06T18:28:58.500Z,99966.22
2022-11-06T18:31:24.875Z,99973.03
2022-11-06T18:33:51.222Z,99959.75
2022-11-06T18:36:17.628Z,99945.84
2022-11-06T18:38:44.031Z,99929.03
2022-11-06T18:41:13.518Z,99931.09
2022-11-06T18:43:40.264Z,99929.81
2022-11-06T18:46:12.096Z,99925.25
2022-11-06T18:48:39.045Z,99930.84
2022-11-06T18:51:13.772Z,99925.44
2022-11-06T18:53:41.594Z,99915.72
2022-11-06T18:56:12.594Z,99917.56
2022-11-06T18:58:39.871Z,99916.94
2022-11-06T19:01:07.818Z,99921.50
2022-11-06T19:03:35.647Z,99918.78
2022-11-06T19:06:03.832Z,99921.50
2022-11-06T19:08:31.102Z,99914.41
2022-11-06T19:10:57.453Z,99923.53
2022-11-06T19:13:23.920Z,99935.34
2022-11-06T19:15:50.303Z,99938.03
2022-11-06T19:18:16.993Z,99923.09
2022-11-06T19:20:44.177Z,99925.78
2022-11-06T19:23:14.389Z,99922.25
2022-11-06T19:25:41.961Z,99925.13
2022-11-06T19:28:08.493Z,99928.84
2022-11-06T19:30:35.098Z,99923.66
2022-11-06T19:33:01.608Z,99927.19
2022-11-06T19:35:27.992Z,99920.97
2022-11-06T19:37:54.354Z,99934.44
2022-11-06T19:40:21.851Z,99935.44
2022-11-06T19:42:48.189Z,99939.00
2022-11-06T19:45:14.679Z,99942.50
2022-11-06T19:47:41.424Z,99932.75
2022-11-06T19:50:08.108Z,99925.53
2022-11-06T19:52:42.786Z,99920.16
2022-11-06T19:55:26.453Z,99928.00
2022-11-06T19:57:54.231Z,99924.50
2022-11-06T20:00:20.675Z,99928.66
2022-11-06T20:02:50.813Z,99924.94
2022-11-06T20:05:17.574Z,99923.94
2022-11-06T20:07:43.953Z,99935.53
2022-11-06T20:10:10.308Z,99941.72
2022-11-06T20:12:36.777Z,99945.06
2022-11-06T20:15:03.812Z,99941.34
2022-11-06T20:17:30.151Z,99933.91
2022-11-06T20:19:56.626Z,99946.34
2022-11-06T20:22:24.928Z,99940.94
2022-11-06T20:24:51.244Z,99946.16
2022-11-06T20:27:17.717Z,99934.56
2022-11-06T20:29:44.737Z,99938.91
2022-11-06T20:32:13.607Z,99937.91
2022-11-06T20:34:42.554Z,99934.16
2022-11-06T20:37:08.937Z,99931.31
2022-11-06T20:39:35.371Z,99945.59
2022-11-06T20:42:01.700Z,99946.41
2022-11-06T20:44:28.053Z,99947.91
2022-11-06T20:46:54.398Z,99955.97
2022-11-06T20:49:20.845Z,99968.41
2022-11-06T20:52:12.051Z,99953.09
2022-11-06T20:54:33.901Z,99967.41
2022-11-06T20:57:00.390Z,99965.53
2022-11-06T20:59:27.008Z,99968.03
2022-11-06T21:01:54.197Z,99973.59
2022-11-06T21:04:21.342Z,99969.25
2022-11-06T21:06:47.688Z,99965.53
2022-11-06T21:09:15.987Z,99963.00
2022-11-06T21:11:42.340Z,99969.44
2022-11-06T21:14:11.995Z,99958.03
2022-11-06T21:16:38.356Z,99966.31
2022-11-06T21:19:05.061Z,99962.75
2022-11-06T21:21:33.709Z,99957.38
2022-11-06T21:24:01.962Z,99958.41
2022-11-06T21:26:30.917Z,99948.47
2022-11-06T21:28:57.948Z,99949.28
2022-11-06T21:31:26.624Z,99961.75
2022-11-06T21:33:55.525Z,99966.94
2022-11-06T21:36:28.145Z,99972.13
2022-11-06T21:38:56.734Z,99968.41
2022-11-06T21:41:25.632Z,99965.34
2022-11-06T21:43:52.100Z,99975.09
2022-11-06T21:46:19.802Z,99989.19
2022-11-06T21:48:47.756Z,99980.09
2022-11-06T21:51:27.358Z,99985.91
2022-11-06T21:54:13.268Z,99981.38
2022-11-06T21:56:41.037Z,99989.94
2022-11-06T21:59:09.749Z,99995.13
2022-11-06T22:01:37.262Z,99990.38
2022-11-06T22:04:04.542Z,99991.84
2022-11-06T22:06:31.283Z,99986.44
2022-11-06T22:09:00.820Z,99989.63
2022-11-06T22:11:36.370Z,99985.69
2022-11-06T22:14:06.059Z,99986.53
2022-11-06T22:16:35.660Z,99990.69
2022-11-06T22:19:02.505Z,99988.00
2022-11-06T22:21:30.386Z,99986.97
2022-11-06T22:23:57.283Z,99994.03
2022-11-06T22:26:26.537Z,99984.09
2022-11-06T22:28:54.885Z,99991.13
2022-11-06T22:31:21.654Z,99993.66
2022-11-06T22:33:52.334Z,100005.25
2022-11-06T22:36:20.894Z,100012.28
2022-11-06T22:38:48.346Z,100007.56
2022-11-06T22:41:17.551Z,100011.94
2022-11-06T22:43:44.629Z,100000.13
2022-11-06T22:46:13.949Z,100001.78
2022-11-06T22:48:40.799Z,99999.72
2022-11-06T22:51:16.648Z,99998.50
2022-11-06T22:53:43.222Z,100005.75
2022-11-06T22:56:12.493Z,100001.00
2022-11-06T22:58:39.796Z,100005.38
2022-11-06T23:01:07.023Z,99997.28
2022-11-06T23:03:33.754Z,100008.72
2022-11-06T23:06:04.038Z,100009.34
2022-11-06T23:08:30.795Z,100006.44
2022-11-06T23:10:57.395Z,100005.44
2022-11-06T23:13:24.306Z,100017.88
2022-11-06T23:15:51.652Z,100007.75
2022-11-06T23:18:18.030Z,100015.00
2022-11-06T23:20:44.442Z,100015.00
2022-11-06T23:23:10.997Z,100019.34
2022-11-06T23:25:37.835Z,100016.66
2022-11-06T23:28:04.569Z,100022.88
2022-11-06T23:30:31.115Z,100011.25
2022-11-06T23:32:57.658Z,100027.03
2022-11-06T23:35:28.063Z,100023.50
2022-11-06T23:37:58.421Z,100025.38
2022-11-06T23:40:24.967Z,100023.50
2022-11-06T23:42:51.357Z,100036.78
2022-11-06T23:45:36.138Z,100028.50
2022-11-06T23:48:07.544Z,100032.03
2022-11-06T23:50:34.869Z,100037.25
2022-11-06T23:53:01.257Z,100041.59
2022-11-06T23:55:27.619Z,100037.69
2022-11-06T23:57:53.990Z,100039.38
